Time;durP1;ratioP1;P1;durP2;ratioP2;P2;SDS_P1;SDS_P2;PMS_P1;PMS_P2;Temp;Humidity;BMP_temperature;BMP_pressure;BME280_temperature;BME280_humidity;BME280_pressure;Samples;Min_cycle;Max_cycle;Signal;HPM_P1;HPM_P2
2021/03/21 00:01:43;;;;;;;6.10;5.07;;;9.50;32.00;;;;;;5007803;28;20937;-43
2021/03/21 00:04:12;;;;;;;6.60;5.03;;;9.50;32.20;;;;;;5007630;28;20449;-43
2021/03/21 00:06:38;;;;;;;5.47;4.97;;;9.60;32.60;;;;;;5008108;28;20459;-43
2021/03/21 00:09:04;;;;;;;5.40;4.53;;;9.60;32.50;;;;;;5006209;28;20445;-43
2021/03/21 00:11:30;;;;;;;5.57;4.60;;;9.40;32.50;;;;;;5003919;28;20288;-42
2021/03/21 00:13:55;;;;;;;5.23;4.33;;;9.40;32.80;;;;;;5005781;28;20453;-43
2021/03/21 00:16:21;;;;;;;5.43;4.90;;;9.20;32.80;;;;;;5006431;28;20190;-43
2021/03/21 00:18:47;;;;;;;6.70;4.43;;;9.10;33.00;;;;;;5010381;28;20672;-43
2021/03/21 00:21:16;;;;;;;6.80;5.13;;;9.10;33.20;;;;;;5009507;28;20229;-43
2021/03/21 00:23:42;;;;;;;5.03;4.53;;;9.00;33.50;;;;;;5009793;28;20437;-43
2021/03/21 00:26:09;;;;;;;14.60;5.47;;;9.10;33.70;;;;;;5005423;28;20445;-43
2021/03/21 00:28:36;;;;;;;6.50;5.50;;;9.20;33.60;;;;;;5008909;28;20528;-43
2021/03/21 00:31:03;;;;;;;5.90;4.70;;;9.30;33.50;;;;;;5006907;28;20449;-43
2021/03/21 00:33:32;;;;;;;7.00;4.40;;;9.20;33.40;;;;;;5007987;28;20473;-43
2021/03/21 00:35:58;;;;;;;5.47;4.80;;;9.30;33.40;;;;;;5010303;28;20948;-43
2021/03/21 00:38:29;;;;;;;7.13;4.70;;;9.30;33.70;;;;;;5009788;28;20445;-42
2021/03/21 00:40:55;;;;;;;6.00;4.20;;;9.40;33.30;;;;;;4992649;28;20651;-42
2021/03/21 00:43:21;;;;;;;4.97;4.23;;;9.40;32.90;;;;;;5008861;28;20952;-42
2021/03/21 00:45:47;;;;;;;4.80;4.33;;;9.50;32.90;;;;;;5005210;28;20449;-42
2021/03/21 00:48:19;;;;;;;6.80;6.10;;;9.50;33.10;;;;;;5009468;28;20221;-42
2021/03/21 00:50:45;;;;;;;7.80;5.90;;;9.50;33.80;;;;;;5004412;28;20447;-45
2021/03/21 00:53:11;;;;;;;6.70;5.80;;;9.50;34.20;;;;;;5000209;28;20590;-43
2021/03/21 00:55:37;;;;;;;8.30;5.50;;;9.50;34.70;;;;;;4997773;28;20445;-42
2021/03/21 00:58:04;;;;;;;7.60;4.90;;;9.50;35.20;;;;;;4997792;28;20457;-42
2021/03/21 01:00:34;;;;;;;6.97;4.90;;;9.40;35.30;;;;;;5005849;28;20446;-42
2021/03/21 01:02:59;;;;;;;4.97;4.30;;;9.40;35.60;;;;;;5007800;28;20445;-43
2021/03/21 01:05:28;;;;;;;5.50;4.67;;;9.50;36.10;;;;;;4985527;28;20567;-43
2021/03/21 01:07:54;;;;;;;5.33;4.60;;;9.40;36.20;;;;;;5006543;28;20614;-42
2021/03/21 01:10:24;;;;;;;4.47;4.07;;;9.50;35.80;;;;;;5008200;28;20445;-43
2021/03/21 01:12:52;;;;;;;6.17;5.20;;;9.50;35.30;;;;;;5010567;28;20861;-42
2021/03/21 01:15:18;;;;;;;6.10;4.87;;;9.50;35.10;;;;;;5005483;28;20863;-42
2021/03/21 01:17:44;;;;;;;5.57;4.67;;;9.40;35.30;;;;;;4989564;28;20529;-42
2021/03/21 01:20:10;;;;;;;4.90;4.40;;;9.50;35.80;;;;;;5008904;28;20441;-42
2021/03/21 01:22:36;;;;;;;8.73;7.33;;;9.50;35.20;;;;;;5009084;28;20503;-42
2021/03/21 01:25:04;;;;;;;7.80;6.67;;;9.50;35.10;;;;;;5005228;28;20488;-42
2021/03/21 01:27:29;;;;;;;9.40;6.57;;;9.50;35.30;;;;;;5009473;28;20284;-42
2021/03/21 01:29:55;;;;;;;7.43;5.70;;;9.50;35.80;;;;;;5010838;28;21071;-42
2021/03/21 01:32:21;;;;;;;8.63;5.60;;;9.50;35.50;;;;;;5007613;28;20222;-43
2021/03/21 01:34:46;;;;;;;6.47;5.60;;;9.50;35.30;;;;;;5003689;28;20704;-43
2021/03/21 01:37:13;;;;;;;9.03;5.77;;;9.50;35.30;;;;;;5008049;28;20232;-43
2021/03/21 01:39:38;;;;;;;5.40;4.90;;;9.50;35.20;;;;;;5007797;28;20688;-43
2021/03/21 01:42:10;;;;;;;6.90;5.30;;;9.60;35.20;;;;;;5008737;28;20441;-43
2021/03/21 01:44:36;;;;;;;6.37;4.90;;;9.50;35.10;;;;;;5010081;28;20198;-42
2021/03/21 01:47:13;;;;;;;5.77;4.73;;;9.60;35.20;;;;;;5008174;28;20449;-42
2021/03/21 01:49:43;;;;;;;6.97;5.10;;;9.50;35.00;;;;;;5009373;28;20993;-43
2021/03/21 01:52:19;;;;;;;6.37;5.40;;;9.50;35.10;;;;;;5003465;28;20492;-42
2021/03/21 01:54:45;;;;;;;6.77;5.30;;;9.50;35.20;;;;;;5009399;28;20477;-42
2021/03/21 01:57:11;;;;;;;7.80;5.37;;;9.50;35.40;;;;;;5001191;28;20872;-42
2021/03/21 01:59:36;;;;;;;7.77;4.70;;;9.50;35.60;;;;;;5009688;28;20200;-44
2021/03/21 02:02:03;;;;;;;7.90;5.43;;;9.50;35.80;;;;;;5002821;28;20677;-43
2021/03/21 02:04:29;;;;;;;6.10;4.70;;;9.50;35.80;;;;;;5006780;28;20199;-42
2021/03/21 02:07:03;;;;;;;5.50;4.97;;;9.50;35.80;;;;;;4996082;28;20502;-42
2021/03/21 02:09:56;;;;;;;8.40;5.60;;;9.50;35.90;;;;;;5001753;28;20253;-42
2021/03/21 02:12:48;;;;;;;6.80;5.20;;;9.50;35.90;;;;;;5011636;28;20583;-42
2021/03/21 02:15:41;;;;;;;5.40;4.83;;;9.50;36.10;;;;;;5003714;28;20460;-42
2021/03/21 02:18:43;;;;;;;7.70;5.67;;;9.40;36.30;;;;;;4998051;28;20461;-42
2021/03/21 02:21:23;;;;;;;6.30;5.37;;;9.40;36.40;;;;;;5012704;28;20448;-42
2021/03/21 02:24:01;;;;;;;6.77;5.37;;;9.40;36.30;;;;;;5012621;28;20837;-42
2021/03/21 02:26:55;;;;;;;7.53;4.47;;;9.40;36.30;;;;;;5001188;28;20452;-42
2021/03/21 02:29:44;;;;;;;7.53;5.50;;;9.40;36.60;;;;;;5009130;28;20486;-42
2021/03/21 02:32:22;;;;;;;6.70;5.30;;;9.30;36.70;;;;;;4995785;28;20825;-42
2021/03/21 02:35:13;;;;;;;5.83;4.70;;;9.30;36.80;;;;;;5004102;28;20864;-42
2021/03/21 02:37:44;;;;;;;5.60;4.50;;;9.30;36.90;;;;;;5010266;28;20554;-42
2021/03/21 02:40:36;;;;;;;10.00;5.50;;;9.30;37.00;;;;;;5006604;28;20924;-42
2021/03/21 02:43:08;;;;;;;6.30;5.50;;;9.30;37.10;;;;;;5010155;28;20461;-42
2021/03/21 02:45:38;;;;;;;5.63;5.07;;;9.30;37.30;;;;;;5010944;28;20445;-42
2021/03/21 02:48:12;;;;;;;7.33;5.43;;;9.10;37.60;;;;;;5011434;28;20437;-43
2021/03/21 02:50:42;;;;;;;7.53;5.73;;;9.10;38.00;;;;;;5011438;28;20992;-43
2021/03/21 02:53:23;;;;;;;6.00;5.17;;;9.20;38.10;;;;;;5012597;28;20484;-42
2021/03/21 02:55:51;;;;;;;9.30;6.10;;;9.30;38.20;;;;;;4994698;28;20436;-43
2021/03/21 02:58:22;;;;;;;6.60;6.00;;;9.30;38.60;;;;;;5006205;28;20456;-42
2021/03/21 03:00:59;;;;;;;8.20;6.10;;;9.30;38.70;;;;;;5009626;28;20457;-42
2021/03/21 03:03:26;;;;;;;8.30;5.87;;;9.30;38.80;;;;;;5006720;28;20535;-42
2021/03/21 03:05:57;;;;;;;6.77;5.80;;;9.30;39.00;;;;;;4998863;28;20459;-42
2021/03/21 03:08:47;;;;;;;6.00;5.07;;;9.30;39.10;;;;;;5010298;28;20535;-42
2021/03/21 03:11:23;;;;;;;6.63;5.03;;;9.30;39.50;;;;;;5007075;28;20503;-42
2021/03/21 03:13:56;;;;;;;7.90;4.67;;;9.20;38.90;;;;;;5000876;28;20452;-42
2021/03/21 03:16:25;;;;;;;5.30;4.67;;;9.10;38.60;;;;;;5007869;28;20461;-42
2021/03/21 03:18:59;;;;;;;5.90;5.00;;;9.10;38.50;;;;;;5010107;28;20437;-42
2021/03/21 03:21:44;;;;;;;7.10;5.37;;;9.10;38.40;;;;;;5008070;28;20503;-42
2021/03/21 03:24:34;;;;;;;7.20;5.27;;;9.00;38.10;;;;;;5006243;28;20843;-42
2021/03/21 03:27:29;;;;;;;7.07;4.53;;;8.90;38.20;;;;;;5012283;28;20464;-42
2021/03/21 03:30:07;;;;;;;6.10;5.07;;;9.00;38.20;;;;;;4981487;28;20835;-42
2021/03/21 03:32:32;;;;;;;7.00;5.60;;;9.10;38.30;;;;;;5008509;28;20480;-42
2021/03/21 03:34:58;;;;;;;7.33;5.17;;;9.20;38.30;;;;;;5008576;28;20463;-42
2021/03/21 03:37:26;;;;;;;8.53;6.43;;;9.20;38.60;;;;;;5010375;28;20190;-42
2021/03/21 03:39:52;;;;;;;6.23;5.63;;;9.20;38.60;;;;;;5004231;28;20202;-42
2021/03/21 03:42:25;;;;;;;5.00;4.30;;;9.20;38.80;;;;;;5009327;28;20875;-42
2021/03/21 03:45:24;;;;;;;6.27;5.23;;;9.10;38.80;;;;;;5002666;28;21057;-42
2021/03/21 03:48:24;;;;;;;5.13;4.40;;;9.10;38.60;;;;;;5010370;28;20543;-42
2021/03/21 03:51:09;;;;;;;7.40;4.67;;;9.10;38.60;;;;;;5007245;28;20474;-42
2021/03/21 03:53:49;;;;;;;6.17;4.83;;;9.10;38.30;;;;;;5011032;28;21086;-42
2021/03/21 03:56:17;;;;;;;4.30;3.90;;;9.10;38.20;;;;;;5005897;28;20472;-42
2021/03/21 03:59:02;;;;;;;6.53;4.20;;;9.20;38.20;;;;;;5009032;28;20487;-42
2021/03/21 04:01:41;;;;;;;6.77;4.87;;;9.20;38.20;;;;;;5003910;28;20456;-42
2021/03/21 04:04:33;;;;;;;4.77;4.33;;;9.20;38.30;;;;;;5010917;28;20455;-42
2021/03/21 04:07:22;;;;;;;7.30;4.57;;;9.10;38.40;;;;;;4978357;28;20445;-42
2021/03/21 04:09:56;;;;;;;5.90;4.43;;;9.10;38.50;;;;;;4994585;28;20810;-42
2021/03/21 04:12:41;;;;;;;6.83;4.70;;;9.10;38.10;;;;;;5009132;28;20575;-42
2021/03/21 04:15:13;;;;;;;4.57;3.77;;;9.10;37.90;;;;;;5009293;28;20464;-42
2021/03/21 04:18:02;;;;;;;5.70;4.50;;;9.10;38.00;;;;;;5008514;28;20460;-42
2021/03/21 04:20:36;;;;;;;4.93;4.07;;;9.10;38.10;;;;;;4990138;28;20852;-42
2021/03/21 04:23:15;;;;;;;4.17;3.73;;;9.10;37.90;;;;;;5010872;28;20444;-42
2021/03/21 04:25:53;;;;;;;5.00;4.50;;;9.20;38.00;;;;;;5008105;28;20441;-42
2021/03/21 04:28:48;;;;;;;5.13;3.80;;;9.20;38.00;;;;;;5003025;28;20444;-43
2021/03/21 04:31:15;;;;;;;4.60;3.50;;;9.20;37.80;;;;;;5009175;28;20445;-42
2021/03/21 04:33:47;;;;;;;4.17;3.60;;;9.10;37.30;;;;;;5010569;28;20504;-42
2021/03/21 04:36:22;;;;;;;4.70;4.17;;;9.10;36.80;;;;;;4997909;28;20495;-42
2021/03/21 04:38:54;;;;;;;5.97;4.30;;;9.10;36.60;;;;;;5005237;28;20497;-42
2021/03/21 04:41:32;;;;;;;4.33;3.60;;;9.10;36.40;;;;;;5010023;28;20437;-42
2021/03/21 04:44:04;;;;;;;4.87;4.17;;;9.20;36.40;;;;;;5002495;28;20446;-42
2021/03/21 04:46:37;;;;;;;4.40;4.00;;;9.20;36.30;;;;;;5006347;28;20449;-42
2021/03/21 04:49:03;;;;;;;4.27;3.83;;;9.20;36.30;;;;;;5008351;28;20441;-42
2021/03/21 04:51:36;;;;;;;5.40;4.40;;;9.20;36.60;;;;;;5005286;28;20457;-42
2021/03/21 04:54:23;;;;;;;5.27;4.77;;;9.20;37.20;;;;;;5003419;28;20449;-42
2021/03/21 04:56:58;;;;;;;5.57;4.60;;;8.90;38.30;;;;;;5006684;28;20959;-42
2021/03/21 04:59:32;;;;;;;5.23;4.70;;;8.90;39.10;;;;;;5000149;28;20460;-42
2021/03/21 05:02:12;;;;;;;6.00;5.33;;;8.90;39.50;;;;;;5005748;28;20519;-42
2021/03/21 05:04:46;;;;;;;7.30;5.17;;;9.00;39.70;;;;;;5008967;28;20589;-42
2021/03/21 05:07:32;;;;;;;6.43;5.20;;;9.00;40.00;;;;;;5008887;28;20447;-42
2021/03/21 05:10:22;;;;;;;6.33;4.30;;;8.90;40.10;;;;;;4996868;28;20486;-42
2021/03/21 05:12:55;;;;;;;12.80;4.70;;;9.00;40.00;;;;;;5010189;28;20492;-42
2021/03/21 05:15:40;;;;;;;5.30;4.70;;;9.00;39.80;;;;;;5008817;28;20460;-42
2021/03/21 05:18:28;;;;;;;5.73;4.63;;;9.00;39.90;;;;;;5010075;28;20452;-42
2021/03/21 05:20:54;;;;;;;5.23;4.70;;;9.00;40.00;;;;;;5003951;28;20453;-42
2021/03/21 05:23:37;;;;;;;4.97;4.47;;;9.10;39.90;;;;;;5009423;28;20495;-42
2021/03/21 05:26:15;;;;;;;6.90;4.77;;;9.10;39.90;;;;;;5006261;28;20221;-42
2021/03/21 05:28:53;;;;;;;6.07;4.67;;;9.10;39.80;;;;;;5007881;28;20938;-42
2021/03/21 05:31:19;;;;;;;8.33;4.80;;;9.10;40.00;;;;;;5004248;28;20460;-42
2021/03/21 05:33:46;;;;;;;7.63;4.63;;;9.10;40.20;;;;;;5006989;28;20575;-42
2021/03/21 05:36:56;;;;;;;6.57;4.87;;;9.10;40.00;;;;;;5009314;28;20580;-42
2021/03/21 05:39:29;;;;;;;5.73;4.63;;;9.10;39.80;;;;;;4992604;28;20447;-42
2021/03/21 05:42:42;;;;;;;5.27;4.10;;;9.10;39.90;;;;;;4999495;28;22539;-42
2021/03/21 05:45:26;;;;;;;5.80;4.07;;;9.10;40.00;;;;;;5004481;28;20971;-42
2021/03/21 05:48:12;;;;;;;6.33;5.30;;;9.20;39.80;;;;;;5008875;28;20459;-42
2021/03/21 05:50:49;;;;;;;5.33;3.97;;;9.20;39.20;;;;;;5001005;28;20449;-42
2021/03/21 05:53:50;;;;;;;5.10;4.23;;;9.10;38.60;;;;;;5008485;28;21045;-42
2021/03/21 05:56:49;;;;;;;4.17;3.40;;;9.10;38.30;;;;;;5000276;28;20460;-42
2021/03/21 05:59:59;;;;;;;6.20;4.10;;;9.10;38.10;;;;;;5006729;28;20460;-42
2021/03/21 06:02:43;;;;;;;5.23;4.33;;;9.10;38.20;;;;;;5008701;28;20487;-42
2021/03/21 06:05:14;;;;;;;10.67;4.50;;;9.20;38.10;;;;;;5006372;28;20504;-42
2021/03/21 06:07:51;;;;;;;4.40;3.93;;;9.10;37.90;;;;;;5003836;28;20457;-43
2021/03/21 06:10:35;;;;;;;4.90;4.40;;;8.90;38.20;;;;;;4997801;28;20542;-42
2021/03/21 06:13:34;;;;;;;5.40;4.50;;;9.00;38.40;;;;;;5010123;28;20579;-42
2021/03/21 06:16:18;;;;;;;5.60;4.20;;;9.00;38.40;;;;;;5004738;28;20457;-42
2021/03/21 06:19:06;;;;;;;6.80;4.90;;;9.10;38.60;;;;;;5002933;28;20998;-42
2021/03/21 06:21:31;;;;;;;7.93;4.10;;;9.00;38.60;;;;;;5007471;28;21035;-42
2021/03/21 06:24:06;;;;;;;6.67;5.10;;;8.70;39.00;;;;;;5001444;28;20531;-42
2021/03/21 06:26:40;;;;;;;5.97;4.73;;;8.60;39.40;;;;;;5002758;28;20271;-43
2021/03/21 06:29:50;;;;;;;6.57;5.63;;;8.60;39.60;;;;;;5006513;28;20464;-42
2021/03/21 06:32:35;;;;;;;4.20;3.80;;;8.30;39.50;;;;;;4966786;28;21002;-42
2021/03/21 06:35:22;;;;;;;5.20;4.00;;;8.40;40.10;;;;;;5003923;28;20983;-42
2021/03/21 06:38:06;;;;;;;5.50;3.50;;;8.50;40.00;;;;;;5000410;28;20474;-41
2021/03/21 06:41:04;;;;;;;4.40;3.90;;;8.70;41.70;;;;;;5007909;28;20532;-41
2021/03/21 06:43:46;;;;;;;6.20;4.47;;;9.10;45.50;;;;;;4996148;28;20489;-41
2021/03/21 06:46:30;;;;;;;7.03;3.93;;;9.60;44.50;;;;;;5002620;28;20465;-41
2021/03/21 06:49:04;;;;;;;5.03;4.07;;;10.00;42.40;;;;;;5007910;28;20963;-41
2021/03/21 06:51:40;;;;;;;5.20;3.90;;;10.30;41.50;;;;;;5000493;28;20452;-41
2021/03/21 06:54:21;;;;;;;6.10;4.23;;;10.60;39.70;;;;;;5005291;28;20463;-41
2021/03/21 06:57:05;;;;;;;5.73;4.30;;;10.80;38.40;;;;;;5010769;28;20460;-42
2021/03/21 07:00:01;;;;;;;7.10;4.30;;;11.00;38.40;;;;;;5010843;28;20479;-41
2021/03/21 07:02:30;;;;;;;4.73;4.07;;;11.20;37.60;;;;;;5006860;28;20488;-41
2021/03/21 07:05:23;;;;;;;9.43;6.00;;;11.30;36.70;;;;;;5006897;28;20451;-41
2021/03/21 07:08:23;;;;;;;5.27;4.77;;;11.50;37.00;;;;;;5007765;28;20816;-42
2021/03/21 07:11:20;;;;;;;5.00;4.50;;;11.60;36.30;;;;;;4989229;28;21018;-41
2021/03/21 07:14:23;;;;;;;5.97;5.37;;;11.70;35.20;;;;;;4980371;28;21006;-42
2021/03/21 07:17:22;;;;;;;5.47;4.77;;;11.80;35.30;;;;;;5004584;28;20440;-42
2021/03/21 07:20:24;;;;;;;7.33;4.93;;;11.90;35.60;;;;;;5004728;28;20460;-42
2021/03/21 07:23:01;;;;;;;5.70;5.10;;;11.90;35.30;;;;;;5007183;28;20456;-42
2021/03/21 07:26:13;;;;;;;6.60;4.90;;;12.00;34.90;;;;;;5010462;28;20460;-42
2021/03/21 07:29:09;;;;;;;7.30;5.30;;;12.10;35.00;;;;;;5008403;28;20460;-41
2021/03/21 07:31:40;;;;;;;6.90;5.23;;;12.10;34.70;;;;;;5001805;28;20454;-41
2021/03/21 07:34:15;;;;;;;10.30;5.23;;;12.10;34.40;;;;;;5004814;28;20449;-42
2021/03/21 07:37:11;;;;;;;7.23;4.10;;;12.10;34.40;;;;;;5008268;28;20574;-41
2021/03/21 07:40:05;;;;;;;5.90;4.30;;;12.10;34.10;;;;;;4994826;28;20461;-42
2021/03/21 07:43:08;;;;;;;4.63;3.60;;;12.20;34.40;;;;;;5005615;28;20473;-41
2021/03/21 07:46:14;;;;;;;5.03;4.10;;;12.20;33.60;;;;;;4992322;28;20448;-42
2021/03/21 07:49:04;;;;;;;4.30;3.47;;;12.20;33.90;;;;;;5010360;28;20441;-42
2021/03/21 07:51:36;;;;;;;5.07;4.27;;;12.20;34.10;;;;;;5010342;28;20481;-42
2021/03/21 07:54:30;;;;;;;6.23;4.40;;;12.20;33.90;;;;;;5009810;28;20464;-41
2021/03/21 07:57:20;;;;;;;4.23;3.83;;;12.30;34.00;;;;;;5009244;28;20465;-42
2021/03/21 07:59:47;;;;;;;5.70;4.33;;;12.30;33.60;;;;;;5007911;28;20452;-41
2021/03/21 08:02:18;;;;;;;4.77;4.10;;;12.40;34.00;;;;;;5010527;28;20454;-42
2021/03/21 08:04:47;;;;;;;5.50;3.80;;;12.30;33.90;;;;;;5003418;28;20936;-41
2021/03/21 08:07:30;;;;;;;4.57;3.90;;;12.30;33.70;;;;;;5013153;28;20453;-41
2021/03/21 08:09:56;;;;;;;6.10;3.97;;;12.10;33.60;;;;;;4996624;28;20438;-41
2021/03/21 08:12:22;;;;;;;7.23;4.03;;;12.10;34.00;;;;;;4993796;28;20498;-41
2021/03/21 08:14:59;;;;;;;4.40;4.00;;;12.20;34.30;;;;;;5010799;28;20201;-41
2021/03/21 08:17:34;;;;;;;5.30;4.00;;;12.10;34.10;;;;;;5010915;28;20236;-41
2021/03/21 08:20:20;;;;;;;5.10;4.43;;;12.20;34.50;;;;;;5010037;28;20459;-41
2021/03/21 08:22:46;;;;;;;7.17;4.70;;;12.30;34.30;;;;;;5002972;28;20441;-41
2021/03/21 08:25:28;;;;;;;6.20;5.10;;;12.40;34.20;;;;;;5005151;28;20465;-41
2021/03/21 08:27:55;;;;;;;4.77;3.97;;;12.40;34.00;;;;;;4999935;28;20451;-42
2021/03/21 08:30:26;;;;;;;4.87;3.60;;;12.50;34.00;;;;;;5000719;28;20448;-41
2021/03/21 08:32:53;;;;;;;6.23;4.03;;;12.50;33.90;;;;;;4999153;28;20891;-41
2021/03/21 08:35:30;;;;;;;4.80;3.70;;;12.50;33.80;;;;;;5010496;28;20449;-41
2021/03/21 08:38:01;;;;;;;6.70;5.60;;;12.50;33.70;;;;;;5002513;28;20442;-41
2021/03/21 08:40:34;;;;;;;3.73;3.43;;;12.60;33.50;;;;;;5004246;28;20458;-41
2021/03/21 08:43:08;;;;;;;4.80;3.87;;;12.60;32.80;;;;;;5012893;28;20444;-41
2021/03/21 08:45:49;;;;;;;3.37;3.07;;;12.00;32.40;;;;;;5011736;28;20982;-41
2021/03/21 08:48:21;;;;;;;3.17;2.83;;;11.70;32.70;;;;;;5004766;28;20924;-42
2021/03/21 08:50:52;;;;;;;3.43;3.13;;;11.40;32.50;;;;;;5012019;28;20952;-42
2021/03/21 08:53:40;;;;;;;4.83;3.27;;;11.00;33.00;;;;;;4997817;28;20907;-41
2021/03/21 08:56:20;;;;;;;4.43;3.37;;;11.10;34.30;;;;;;5002249;28;20449;-42
2021/03/21 08:58:49;;;;;;;3.10;2.80;;;11.20;34.50;;;;;;5011724;28;20989;-41
2021/03/21 09:01:16;;;;;;;5.53;4.13;;;11.20;34.70;;;;;;4999556;28;20433;-41
2021/03/21 09:03:43;;;;;;;4.03;3.63;;;11.20;34.80;;;;;;5012582;28;20429;-42
2021/03/21 09:06:33;;;;;;;4.73;3.63;;;11.20;34.60;;;;;;4999455;28;20438;-41
2021/03/21 09:09:38;;;;;;;4.13;3.40;;;11.00;34.50;;;;;;5012060;28;20441;-41
2021/03/21 09:12:22;;;;;;;5.47;3.90;;;11.00;34.40;;;;;;5001056;28;20978;-41
2021/03/21 09:14:48;;;;;;;5.97;4.47;;;11.00;34.60;;;;;;5007858;28;20438;-41
2021/03/21 09:17:26;;;;;;;4.27;3.87;;;11.00;34.60;;;;;;5002977;28;20429;-41
2021/03/21 09:19:59;;;;;;;4.10;3.70;;;11.10;34.80;;;;;;5009857;28;20444;-41
2021/03/21 09:22:33;;;;;;;7.73;4.30;;;11.20;34.80;;;;;;4994250;28;20495;-41
2021/03/21 09:25:11;;;;;;;7.03;4.17;;;11.10;34.90;;;;;;5011958;28;20448;-41
2021/03/21 09:27:40;;;;;;;5.33;3.40;;;11.20;34.70;;;;;;5011993;28;20445;-41
2021/03/21 09:30:21;;;;;;;4.77;3.90;;;11.20;34.70;;;;;;5010958;28;20425;-41
2021/03/21 09:32:55;;;;;;;3.53;3.23;;;11.20;34.50;;;;;;5011162;28;20846;-41
2021/03/21 09:35:32;;;;;;;6.03;3.40;;;11.20;34.40;;;;;;5011671;28;20467;-41
2021/03/21 09:38:20;;;;;;;4.03;3.53;;;11.00;34.40;;;;;;5011981;28;20559;-41
2021/03/21 09:41:08;;;;;;;3.93;3.20;;;10.90;34.40;;;;;;4998311;28;20457;-43
2021/03/21 09:43:37;;;;;;;3.97;3.20;;;11.10;34.70;;;;;;5011873;28;20536;-41
2021/03/21 09:46:27;;;;;;;3.97;3.60;;;11.20;34.60;;;;;;4997004;28;20472;-41
2021/03/21 09:49:04;;;;;;;3.80;3.50;;;11.20;34.70;;;;;;5008726;28;20448;-41
2021/03/21 09:51:56;;;;;;;4.37;3.60;;;11.20;34.70;;;;;;5002307;28;20468;-41
2021/03/21 09:54:25;;;;;;;6.83;4.07;;;11.30;35.20;;;;;;4988587;28;20442;-41
2021/03/21 09:57:13;;;;;;;5.00;4.07;;;11.40;34.90;;;;;;5009301;28;20512;-41
2021/03/21 10:00:09;;;;;;;4.63;3.90;;;11.40;34.70;;;;;;5003126;28;20429;-41
2021/03/21 10:02:43;;;;;;;4.67;3.77;;;11.40;35.10;;;;;;5005993;28;21302;-41
2021/03/21 10:05:18;;;;;;;4.07;3.40;;;11.30;35.20;;;;;;5010011;28;20459;-41
2021/03/21 10:08:11;;;;;;;4.30;3.57;;;11.10;35.50;;;;;;5009983;28;20475;-41
2021/03/21 10:10:44;;;;;;;4.87;3.93;;;11.00;36.30;;;;;;5002375;28;20436;-42
2021/03/21 10:13:26;;;;;;;5.77;4.20;;;11.10;35.70;;;;;;5005999;28;20492;-42
2021/03/21 10:16:10;;;;;;;6.70;4.70;;;10.80;36.10;;;;;;5009460;28;20431;-42
2021/03/21 10:19:08;;;;;;;6.63;4.17;;;10.80;37.90;;;;;;5002820;28;20452;-42
2021/03/21 10:21:37;;;;;;;8.80;5.20;;;10.70;39.30;;;;;;5008627;28;20952;-41
2021/03/21 10:24:27;;;;;;;7.23;4.17;;;10.40;40.30;;;;;;5004730;28;20468;-42
2021/03/21 10:27:14;;;;;;;5.67;4.60;;;10.40;40.40;;;;;;4998847;28;20452;-42
2021/03/21 10:29:40;;;;;;;4.80;4.10;;;10.50;40.60;;;;;;5011243;28;20479;-42
2021/03/21 10:32:23;;;;;;;5.93;4.50;;;10.50;41.00;;;;;;5013814;28;20508;-42
2021/03/21 10:34:50;;;;;;;6.00;4.40;;;10.40;41.60;;;;;;5009854;28;20198;-42
2021/03/21 10:37:40;;;;;;;7.73;4.40;;;10.40;41.40;;;;;;5014837;28;20487;-42
2021/03/21 10:40:12;;;;;;;4.90;4.40;;;10.30;41.50;;;;;;5012042;28;20454;-42
2021/03/21 10:42:50;;;;;;;6.13;4.70;;;10.30;41.40;;;;;;5012715;28;20459;-43
2021/03/21 10:45:31;;;;;;;4.87;4.37;;;10.40;41.10;;;;;;5008452;28;20490;-44
2021/03/21 10:47:58;;;;;;;6.23;4.47;;;10.40;41.80;;;;;;5008843;28;20443;-41
2021/03/21 10:50:30;;;;;;;6.20;4.90;;;10.40;42.70;;;;;;5012126;28;20497;-41
2021/03/21 10:53:24;;;;;;;4.57;4.17;;;10.70;43.10;;;;;;5014021;28;20488;-42
2021/03/21 10:56:08;;;;;;;6.83;4.90;;;10.70;43.00;;;;;;5011259;28;20449;-42
2021/03/21 10:58:33;;;;;;;4.97;4.33;;;10.90;42.70;;;;;;5010057;28;20457;-41
2021/03/21 11:01:19;;;;;;;7.43;4.80;;;10.90;42.60;;;;;;5013105;28;21102;-42
2021/03/21 11:03:57;;;;;;;6.27;4.37;;;10.80;43.90;;;;;;5010895;28;20206;-42
2021/03/21 11:06:24;;;;;;;6.33;4.70;;;10.60;44.00;;;;;;5010804;28;20452;-42
2021/03/21 11:08:50;;;;;;;5.20;4.67;;;10.60;44.80;;;;;;5011188;28;20611;-42
2021/03/21 11:11:32;;;;;;;4.40;4.00;;;10.60;45.80;;;;;;5008113;28;20920;-42
2021/03/21 11:14:24;;;;;;;5.90;4.50;;;10.70;46.30;;;;;;5012368;28;20496;-42
2021/03/21 11:16:59;;;;;;;4.93;4.30;;;10.50;46.10;;;;;;5013814;28;20443;-42
2021/03/21 11:19:34;;;;;;;4.67;4.00;;;10.70;46.50;;;;;;5011909;28;20455;-43
2021/03/21 11:22:09;;;;;;;7.30;5.77;;;10.60;46.30;;;;;;4987406;28;20445;-42
2021/03/21 11:24:38;;;;;;;6.00;4.83;;;10.30;46.70;;;;;;5011300;28;20440;-42
2021/03/21 11:27:11;;;;;;;7.17;5.37;;;10.30;46.60;;;;;;5009687;28;20924;-42
2021/03/21 11:29:39;;;;;;;6.23;5.03;;;10.30;46.90;;;;;;5011740;28;20502;-42
2021/03/21 11:32:20;;;;;;;7.70;5.17;;;10.30;46.90;;;;;;5010423;28;20480;-42
2021/03/21 11:35:01;;;;;;;7.03;4.63;;;10.50;46.60;;;;;;5005859;28;20468;-43
2021/03/21 11:37:32;;;;;;;6.63;5.50;;;10.60;45.90;;;;;;5011827;28;20918;-42
2021/03/21 11:40:00;;;;;;;6.23;5.50;;;10.70;45.90;;;;;;5004968;28;20440;-42
2021/03/21 11:42:36;;;;;;;7.00;5.37;;;10.50;45.60;;;;;;5011382;28;20526;-42
2021/03/21 11:45:20;;;;;;;5.73;5.13;;;10.50;45.70;;;;;;5011164;28;20936;-42
2021/03/21 11:47:52;;;;;;;6.37;5.77;;;10.60;45.50;;;;;;5002115;28;20539;-42
2021/03/21 11:50:18;;;;;;;7.60;5.30;;;10.80;45.20;;;;;;5009541;28;20441;-42
2021/03/21 11:52:44;;;;;;;6.17;5.43;;;11.00;44.70;;;;;;5003138;28;20526;-42
2021/03/21 11:55:18;;;;;;;8.13;5.50;;;11.10;44.20;;;;;;4999096;28;20329;-42
2021/03/21 11:57:55;;;;;;;6.23;4.80;;;11.20;43.80;;;;;;5013676;28;20804;-42
2021/03/21 12:00:30;;;;;;;8.07;5.47;;;11.20;43.30;;;;;;5001805;28;20657;-42
2021/03/21 12:03:00;;;;;;;6.60;5.77;;;11.00;42.50;;;;;;5009268;28;20448;-42
2021/03/21 12:05:34;;;;;;;6.27;4.77;;;10.90;42.80;;;;;;5012305;28;20441;-42
2021/03/21 12:08:12;;;;;;;5.20;4.50;;;10.90;42.90;;;;;;5012390;28;20428;-42
2021/03/21 12:10:42;;;;;;;5.90;4.90;;;11.10;42.70;;;;;;5007445;28;21010;-42
2021/03/21 12:13:36;;;;;;;7.90;5.83;;;11.00;42.60;;;;;;5012827;28;20503;-42
2021/03/21 12:16:26;;;;;;;5.63;5.03;;;11.00;43.20;;;;;;5011656;28;20473;-43
2021/03/21 12:18:57;;;;;;;6.33;4.87;;;11.00;44.00;;;;;;5010405;28;20449;-42
2021/03/21 12:21:24;;;;;;;5.60;4.90;;;11.00;44.20;;;;;;5007901;28;20464;-42
2021/03/21 12:23:56;;;;;;;8.20;4.50;;;11.20;44.10;;;;;;5013087;28;20498;-43
2021/03/21 12:26:37;;;;;;;5.20;4.50;;;11.20;44.10;;;;;;5005851;28;20438;-42
2021/03/21 12:29:31;;;;;;;9.70;5.07;;;11.30;44.30;;;;;;5010919;28;20445;-42
2021/03/21 12:32:16;;;;;;;4.70;4.17;;;11.10;45.00;;;;;;5007464;28;20471;-42
2021/03/21 12:34:47;;;;;;;5.63;5.13;;;11.00;45.80;;;;;;5011491;28;20429;-42
2021/03/21 12:37:16;;;;;;;4.93;4.20;;;11.20;46.00;;;;;;5008518;28;20433;-43
2021/03/21 12:39:45;;;;;;;7.40;6.40;;;11.30;46.20;;;;;;5011354;28;20465;-41
2021/03/21 12:42:26;;;;;;;5.33;4.73;;;11.40;46.10;;;;;;5012871;28;20447;-41
2021/03/21 12:45:21;;;;;;;5.53;4.97;;;11.40;46.10;;;;;;5011652;28;20469;-41
2021/03/21 12:47:53;;;;;;;5.53;4.47;;;11.40;46.70;;;;;;4988609;28;20536;-41
2021/03/21 12:50:34;;;;;;;5.53;4.80;;;11.40;46.70;;;;;;5006993;28;20485;-41
2021/03/21 12:53:01;;;;;;;5.63;4.20;;;11.40;47.00;;;;;;5012267;28;20512;-41
2021/03/21 12:55:27;;;;;;;5.93;5.33;;;11.50;46.80;;;;;;5011663;28;20891;-41
2021/03/21 12:57:53;;;;;;;4.13;3.73;;;11.80;46.50;;;;;;5010786;28;20480;-41
2021/03/21 13:00:25;;;;;;;6.23;4.60;;;11.90;46.40;;;;;;5008989;28;20210;-41
2021/03/21 13:02:53;;;;;;;4.33;3.90;;;11.90;46.50;;;;;;5012529;28;20460;-41
2021/03/21 13:05:20;;;;;;;6.17;4.60;;;12.00;46.70;;;;;;5010345;28;20437;-41
2021/03/21 13:07:46;;;;;;;6.70;5.10;;;11.80;46.90;;;;;;5012367;28;20912;-41
2021/03/21 13:10:12;;;;;;;6.67;4.23;;;11.80;47.30;;;;;;5011722;28;20424;-41
2021/03/21 13:12:39;;;;;;;6.23;5.30;;;11.70;47.80;;;;;;5012332;28;20260;-41
2021/03/21 13:15:05;;;;;;;4.80;4.40;;;11.70;48.00;;;;;;5012015;28;20452;-41
2021/03/21 13:17:31;;;;;;;5.50;5.00;;;11.60;48.30;;;;;;5011537;28;20448;-41
2021/03/21 13:19:57;;;;;;;6.60;4.97;;;11.80;48.30;;;;;;5010812;28;21125;-41
2021/03/21 13:22:22;;;;;;;6.80;5.90;;;11.80;48.30;;;;;;5011423;28;20202;-41
2021/03/21 13:24:48;;;;;;;8.13;5.27;;;11.60;48.70;;;;;;5011471;28;20186;-41
2021/03/21 13:27:13;;;;;;;6.87;5.03;;;11.30;49.70;;;;;;5009811;28;20190;-42
2021/03/21 13:29:39;;;;;;;4.80;4.20;;;11.30;50.10;;;;;;5005590;28;20565;-41
2021/03/21 13:32:05;;;;;;;5.33;4.73;;;11.10;50.50;;;;;;5010402;28;20279;-41
2021/03/21 13:34:32;;;;;;;7.40;5.70;;;11.00;50.90;;;;;;5006344;28;20217;-41
2021/03/21 13:37:00;;;;;;;6.50;5.53;;;10.90;51.30;;;;;;5007901;28;20535;-41
2021/03/21 13:39:26;;;;;;;5.93;5.00;;;11.00;51.30;;;;;;5010908;28;20455;-41
2021/03/21 13:41:51;;;;;;;5.30;4.80;;;10.90;51.50;;;;;;5010803;28;20896;-41
2021/03/21 13:44:17;;;;;;;7.80;5.33;;;10.90;51.60;;;;;;5011789;28;20201;-41